createdAt,value
2022-08-04T00:00:15.696Z,23.65
2022-08-04T00:01:15.718Z,23.69
2022-08-04T00:02:15.741Z,23.75
2022-08-04T00:03:15.669Z,23.69
2022-08-04T00:04:15.661Z,23.70
2022-08-04T00:05:15.654Z,23.63
2022-08-04T00:06:15.642Z,23.66
2022-08-04T00:07:15.633Z,23.72
2022-08-04T00:08:15.730Z,23.63
2022-08-04T00:09:15.619Z,23.69
2022-08-04T00:10:15.629Z,23.72
2022-08-04T00:11:15.842Z,23.70
2022-08-04T00:12:15.595Z,23.70
2022-08-04T00:13:15.585Z,23.58
2022-08-04T00:14:15.605Z,23.66
2022-08-04T00:15:16.491Z,23.68
2022-08-04T00:16:15.565Z,23.53
2022-08-04T00:17:15.551Z,23.57
2022-08-04T00:18:15.552Z,23.57
2022-08-04T00:19:15.587Z,23.51
2022-08-04T00:20:15.535Z,23.50
2022-08-04T00:21:15.544Z,23.61
2022-08-04T00:22:15.513Z,23.57
2022-08-04T00:23:15.503Z,23.31
2022-08-04T00:24:15.503Z,23.19
2022-08-04T00:25:15.497Z,23.16
2022-08-04T00:26:15.485Z,23.04
2022-08-04T00:27:15.474Z,23.10
2022-08-04T00:28:15.471Z,23.07
2022-08-04T00:29:15.499Z,22.92
2022-08-04T00:30:15.477Z,22.86
2022-08-04T00:31:15.974Z,22.83
2022-08-04T00:32:15.436Z,22.79
2022-08-04T00:33:15.428Z,22.79
2022-08-04T00:34:15.473Z,22.62
2022-08-04T00:35:15.407Z,22.54
2022-08-04T00:36:15.404Z,22.47
2022-08-04T00:37:15.394Z,22.51
2022-08-04T00:38:15.390Z,22.49
2022-08-04T00:39:15.413Z,22.46
2022-08-04T00:40:15.373Z,22.40
2022-08-04T00:41:15.384Z,22.36
2022-08-04T00:42:15.354Z,22.37
2022-08-04T00:43:15.347Z,22.39
2022-08-04T00:44:15.338Z,22.40
2022-08-04T00:45:15.337Z,22.40
2022-08-04T00:46:17.282Z,22.30
2022-08-04T00:47:15.311Z,22.28
2022-08-04T00:48:15.308Z,22.37
2022-08-04T00:49:15.298Z,22.20
2022-08-04T00:50:15.290Z,22.21
2022-08-04T00:51:15.310Z,22.18
2022-08-04T00:52:32.054Z,21.98
2022-08-04T00:53:15.263Z,21.90
2022-08-04T00:54:15.260Z,21.83
2022-08-04T00:55:15.273Z,21.79
2022-08-04T00:56:15.241Z,21.77
2022-08-04T00:57:29.975Z,21.72
2022-08-04T00:58:15.225Z,21.71
2022-08-04T00:59:15.218Z,21.79
2022-08-04T01:00:15.260Z,21.82
2022-08-04T01:01:15.219Z,21.82
2022-08-04T01:02:15.190Z,21.82
2022-08-04T01:03:15.183Z,21.74
2022-08-04T01:04:15.183Z,21.86
2022-08-04T01:05:15.162Z,21.82
2022-08-04T01:06:15.191Z,21.82
2022-08-04T01:07:15.151Z,21.77
2022-08-04T01:08:15.142Z,21.75
2022-08-04T01:09:21.202Z,21.75
2022-08-04T01:10:17.540Z,21.75
2022-08-04T01:11:15.161Z,21.77
2022-08-04T01:12:15.106Z,21.75
2022-08-04T01:13:15.670Z,21.67
2022-08-04T01:14:15.109Z,21.75
2022-08-04T01:15:15.079Z,21.69
2022-08-04T01:16:15.104Z,21.77
2022-08-04T01:17:15.107Z,21.71
2022-08-04T01:18:15.063Z,21.74
2022-08-04T01:19:15.051Z,21.75
2022-08-04T01:20:15.043Z,21.74
2022-08-04T01:21:15.033Z,21.68
2022-08-04T01:22:15.049Z,21.69
2022-08-04T01:23:15.011Z,21.64
2022-08-04T01:24:15.007Z,21.67
2022-08-04T01:25:14.994Z,21.50
2022-08-04T01:26:43.454Z,21.42
2022-08-04T01:27:15.056Z,21.35
2022-08-04T01:28:14.976Z,21.34
2022-08-04T01:29:16.026Z,21.43
2022-08-04T01:30:14.961Z,21.44
2022-08-04T01:31:14.947Z,21.46
2022-08-04T01:32:14.938Z,21.61
2022-08-04T01:33:14.953Z,21.62
2022-08-04T01:34:14.961Z,21.59
2022-08-04T01:35:21.776Z,21.61
2022-08-04T01:36:14.926Z,21.64
2022-08-04T01:37:14.893Z,21.44
2022-08-04T01:38:18.292Z,21.40
2022-08-04T01:39:14.990Z,21.27
2022-08-04T01:40:14.877Z,21.27
2022-08-04T01:41:14.857Z,21.31
2022-08-04T01:42:31.551Z,21.29
2022-08-04T01:43:14.843Z,21.37
2022-08-04T01:44:14.836Z,21.43
2022-08-04T01:45:14.852Z,21.42
2022-08-04T01:46:14.817Z,21.43
2022-08-04T01:47:14.806Z,21.44
2022-08-04T01:48:14.797Z,21.44
2022-08-04T01:49:14.790Z,21.49
2022-08-04T01:50:14.839Z,21.52
2022-08-04T01:51:14.771Z,21.52
2022-08-04T01:52:14.767Z,21.47
2022-08-04T01:53:14.751Z,21.52
2022-08-04T01:54:14.766Z,21.44
2022-08-04T01:55:14.734Z,21.43
2022-08-04T01:56:14.758Z,21.35
2022-08-04T01:57:37.748Z,21.31
2022-08-04T01:58:14.708Z,21.43
2022-08-04T01:59:14.699Z,21.38
2022-08-04T02:00:14.697Z,21.38
2022-08-04T02:01:14.805Z,21.35
2022-08-04T02:02:14.791Z,21.40
2022-08-04T02:03:14.665Z,21.40
2022-08-04T02:04:21.024Z,21.25
2022-08-04T02:05:14.648Z,21.31
2022-08-04T02:06:14.682Z,21.35
2022-08-04T02:07:14.646Z,21.37
2022-08-04T02:08:14.624Z,21.35
2022-08-04T02:09:14.616Z,21.29
2022-08-04T02:10:14.605Z,21.34
2022-08-04T02:11:14.598Z,21.21
2022-08-04T02:12:16.183Z,21.12
2022-08-04T02:13:14.613Z,21.09
2022-08-04T02:14:14.572Z,21.10
2022-08-04T02:15:14.561Z,21.13
2022-08-04T02:16:14.560Z,21.17
2022-08-04T02:17:14.564Z,21.16
2022-08-04T02:18:14.535Z,21.22
2022-08-04T02:19:14.752Z,21.29
2022-08-04T02:20:14.530Z,21.34
2022-08-04T02:21:14.536Z,21.35
2022-08-04T02:22:14.498Z,21.38
2022-08-04T02:23:14.496Z,21.42
2022-08-04T02:24:14.482Z,21.47
2022-08-04T02:25:14.475Z,21.38
2022-08-04T02:26:22.794Z,21.43
2022-08-04T02:27:14.456Z,21.38
2022-08-04T02:28:14.478Z,21.46
2022-08-04T02:29:14.474Z,21.38
2022-08-04T02:30:14.427Z,21.54
2022-08-04T02:31:14.421Z,21.44
2022-08-04T02:32:14.410Z,21.46
2022-08-04T02:33:14.406Z,21.49
2022-08-04T02:34:14.394Z,21.47
2022-08-04T02:35:14.387Z,21.31
2022-08-04T02:36:14.375Z,21.32
2022-08-04T02:37:14.371Z,21.28
2022-08-04T02:38:14.620Z,21.28
2022-08-04T02:39:14.393Z,21.27
2022-08-04T02:40:14.344Z,21.24
2022-08-04T02:41:14.331Z,21.14
2022-08-04T02:42:14.327Z,21.28
2022-08-04T02:43:14.316Z,21.21
2022-08-04T02:44:14.332Z,21.25
2022-08-04T02:45:14.329Z,21.25
2022-08-04T02:46:17.666Z,21.25
2022-08-04T02:47:14.293Z,21.35
2022-08-04T02:48:29.824Z,21.31
2022-08-04T02:49:14.293Z,21.34
2022-08-04T02:50:14.254Z,21.25
2022-08-04T02:51:14.253Z,21.25
2022-08-04T02:52:14.229Z,21.14
2022-08-04T02:53:14.229Z,21.13
2022-08-04T02:54:14.241Z,21.14
2022-08-04T02:55:14.234Z,21.12
2022-08-04T02:56:14.197Z,21.10
2022-08-04T02:57:14.231Z,21.13
2022-08-04T02:58:14.178Z,21.10
2022-08-04T02:59:14.172Z,21.10
2022-08-04T03:00:14.197Z,21.07
2022-08-04T03:01:14.177Z,21.09
2022-08-04T03:02:14.142Z,21.16
2022-08-04T03:03:14.137Z,21.12
2022-08-04T03:04:22.131Z,21.22
2022-08-04T03:05:14.119Z,21.16
2022-08-04T03:06:14.178Z,21.22
2022-08-04T03:07:14.410Z,21.25
2022-08-04T03:08:14.088Z,21.27
2022-08-04T03:09:14.084Z,21.32
2022-08-04T03:10:14.070Z,21.25
2022-08-04T03:11:14.066Z,21.16
2022-08-04T03:12:14.111Z,21.24
2022-08-04T03:13:14.052Z,21.21
2022-08-04T03:14:14.036Z,21.22
2022-08-04T03:15:14.032Z,21.22
2022-08-04T03:16:14.021Z,21.25
2022-08-04T03:17:14.013Z,21.27
2022-08-04T03:18:14.162Z,21.27
2022-08-04T03:19:13.997Z,21.34
2022-08-04T03:20:13.985Z,21.34
2022-08-04T03:21:13.976Z,21.25
2022-08-04T03:22:13.964Z,21.25
2022-08-04T03:23:14.333Z,21.31
2022-08-04T03:24:17.029Z,21.25
2022-08-04T03:25:13.942Z,21.28
2022-08-04T03:26:13.931Z,21.29
2022-08-04T03:27:13.927Z,21.19
2022-08-04T03:28:13.916Z,21.19
2022-08-04T03:29:13.945Z,21.22
2022-08-04T03:30:13.912Z,21.13
2022-08-04T03:31:13.894Z,21.17
2022-08-04T03:32:13.876Z,21.10
2022-08-04T03:33:13.874Z,21.13
2022-08-04T03:34:13.866Z,21.16
2022-08-04T03:35:13.860Z,21.17
2022-08-04T03:36:13.854Z,21.17
2022-08-04T03:37:13.838Z,21.29
2022-08-04T03:38:13.826Z,21.27
2022-08-04T03:39:13.840Z,21.28
2022-08-04T03:40:13.835Z,21.29
2022-08-04T03:41:13.803Z,21.37
2022-08-04T03:42:16.024Z,21.34
2022-08-04T03:43:57.374Z,21.44
2022-08-04T03:44:13.771Z,21.42
2022-08-04T03:45:23.184Z,21.35
2022-08-04T03:46:13.757Z,21.34
2022-08-04T03:47:13.817Z,21.42
2022-08-04T03:48:13.732Z,21.47
2022-08-04T03:49:13.731Z,21.53
2022-08-04T03:50:13.722Z,21.49
2022-08-04T03:51:35.055Z,21.50
2022-08-04T03:52:13.763Z,21.52
2022-08-04T03:53:13.716Z,21.52
2022-08-04T03:54:13.685Z,21.40
2022-08-04T03:55:13.677Z,21.49
2022-08-04T03:56:13.665Z,21.44
2022-08-04T03:57:13.663Z,21.43
2022-08-04T03:58:13.650Z,21.46
2022-08-04T03:59:13.639Z,21.35
2022-08-04T04:00:13.628Z,21.35
2022-08-04T04:01:13.625Z,21.25
2022-08-04T04:02:13.662Z,21.29
2022-08-04T04:03:13.617Z,21.17
2022-08-04T04:04:13.653Z,21.25
2022-08-04T04:05:13.596Z,21.25
2022-08-04T04:06:15.091Z,21.24
2022-08-04T04:07:14.330Z,21.35
2022-08-04T04:08:18.739Z,21.29
2022-08-04T04:09:16.297Z,21.29
2022-08-04T04:10:13.581Z,21.27
2022-08-04T04:11:13.542Z,21.29
2022-08-04T04:12:13.528Z,21.29
2022-08-04T04:13:13.520Z,21.24
2022-08-04T04:14:13.510Z,21.17
2022-08-04T04:15:13.504Z,21.13
2022-08-04T04:16:13.533Z,21.21
2022-08-04T04:17:13.515Z,21.17
2022-08-04T04:18:13.471Z,21.17
2022-08-04T04:19:13.466Z,21.13
2022-08-04T04:20:13.455Z,21.10
2022-08-04T04:21:13.444Z,21.09
2022-08-04T04:22:13.482Z,21.04
2022-08-04T04:23:13.429Z,21.10
2022-08-04T04:24:13.419Z,21.09
2022-08-04T04:25:13.412Z,21.14
2022-08-04T04:26:13.398Z,21.13
2022-08-04T04:27:13.476Z,21.17
2022-08-04T04:28:46.490Z,21.19
2022-08-04T04:29:13.375Z,21.09
2022-08-04T04:30:13.361Z,21.14
2022-08-04T04:31:13.360Z,21.12
2022-08-04T04:32:13.352Z,21.21
2022-08-04T04:33:13.340Z,21.22
2022-08-04T04:34:13.329Z,21.16
2022-08-04T04:35:13.323Z,21.13
2022-08-04T04:36:13.348Z,21.14
2022-08-04T04:37:13.369Z,21.07
2022-08-04T04:38:13.293Z,21.12
2022-08-04T04:39:13.362Z,21.09
2022-08-04T04:40:13.276Z,21.09
2022-08-04T04:41:13.267Z,21.06
2022-08-04T04:42:13.259Z,21.01
2022-08-04T04:43:13.251Z,20.87
2022-08-04T04:44:13.239Z,20.88
2022-08-04T04:45:13.235Z,20.84
2022-08-04T04:46:15.313Z,20.87
2022-08-04T04:47:13.244Z,20.92
2022-08-04T04:48:13.205Z,20.91
2022-08-04T04:49:13.196Z,20.99
2022-08-04T04:50:13.213Z,20.92
2022-08-04T04:51:13.177Z,20.99
2022-08-04T04:52:13.166Z,20.95
2022-08-04T04:53:13.162Z,20.88
2022-08-04T04:54:13.167Z,20.80
2022-08-04T04:55:13.173Z,20.88
2022-08-04T04:56:13.136Z,20.88
2022-08-04T04:57:13.139Z,20.89
2022-08-04T04:58:13.114Z,20.85
2022-08-04T04:59:13.106Z,20.85
2022-08-04T05:00:13.100Z,20.87
2022-08-04T05:01:13.093Z,20.99
2022-08-04T05:02:13.076Z,20.97
2022-08-04T05:03:13.074Z,20.98
2022-08-04T05:04:13.063Z,20.91
2022-08-04T05:05:13.055Z,20.99
2022-08-04T05:06:13.109Z,21.03
2022-08-04T05:07:13.070Z,20.92
2022-08-04T05:08:43.339Z,20.92
2022-08-04T05:09:13.021Z,20.98
2022-08-04T05:10:13.006Z,20.98
2022-08-04T05:11:13.008Z,20.98
2022-08-04T05:14:32.063Z,20.94
2022-08-04T05:14:35.656Z,20.88
2022-08-04T05:14:36.438Z,20.95
2022-08-04T05:15:12.966Z,20.95
2022-08-04T05:16:12.952Z,21.01
2022-08-04T05:17:12.986Z,21.07
2022-08-04T05:18:12.954Z,21.07
2022-08-04T05:19:12.944Z,21.13
2022-08-04T05:20:12.917Z,21.17
2022-08-04T05:21:12.910Z,21.19
2022-08-04T05:22:14.809Z,21.17
2022-08-04T05:23:12.897Z,21.12
2022-08-04T05:24:12.887Z,21.13
2022-08-04T05:25:12.878Z,21.13
2022-08-04T05:26:12.861Z,21.17
2022-08-04T05:27:12.950Z,21.12
2022-08-04T05:28:12.858Z,21.22
2022-08-04T05:29:12.841Z,21.16
2022-08-04T05:30:12.827Z,21.17
2022-08-04T05:31:12.826Z,21.17
2022-08-04T05:32:12.816Z,21.25
2022-08-04T05:33:12.843Z,21.27
2022-08-04T05:34:12.792Z,21.27
2022-08-04T05:35:12.790Z,21.28
2022-08-04T05:36:18.418Z,21.34
2022-08-04T05:37:12.854Z,21.32
2022-08-04T05:38:12.812Z,21.31
2022-08-04T05:39:12.820Z,21.14
2022-08-04T05:40:12.743Z,21.19
2022-08-04T05:41:12.733Z,21.24
2022-08-04T05:42:12.723Z,21.28
2022-08-04T05:43:12.741Z,21.25
2022-08-04T05:44:12.759Z,21.29
2022-08-04T05:45:12.697Z,21.25
2022-08-04T05:46:12.695Z,21.29
2022-08-04T05:47:12.685Z,21.22
2022-08-04T05:48:12.669Z,21.29
2022-08-04T05:49:20.465Z,21.32
2022-08-04T05:50:12.654Z,21.31
2022-08-04T05:51:12.642Z,21.29
2022-08-04T05:52:12.637Z,21.27
2022-08-04T05:53:12.630Z,21.27
2022-08-04T05:54:12.616Z,21.34
2022-08-04T05:55:12.641Z,21.28
2022-08-04T05:56:12.664Z,21.29
2022-08-04T05:57:12.592Z,21.25
2022-08-04T05:58:12.583Z,21.31
2022-08-04T05:59:12.576Z,21.29
2022-08-04T06:00:39.070Z,21.25
2022-08-04T06:01:12.558Z,21.38
2022-08-04T06:02:12.592Z,21.31
2022-08-04T06:03:12.543Z,21.24
2022-08-04T06:04:12.530Z,21.31
2022-08-04T06:05:12.523Z,21.28
2022-08-04T06:06:12.512Z,21.37
2022-08-04T06:07:12.510Z,21.38
2022-08-04T06:08:14.063Z,21.38
2022-08-04T06:09:12.494Z,21.43
2022-08-04T06:10:12.487Z,21.49
2022-08-04T06:11:12.500Z,21.47
2022-08-04T06:12:12.483Z,21.53
2022-08-04T06:13:48.150Z,21.56
2022-08-04T06:14:12.442Z,21.65
2022-08-04T06:15:12.438Z,21.69
2022-08-04T06:16:28.994Z,21.75
2022-08-04T06:18:32.397Z,21.75
2022-08-04T06:19:57.270Z,21.82
2022-08-04T06:20:03.667Z,21.74
2022-08-04T06:20:19.168Z,21.79
2022-08-04T06:21:15.912Z,21.74
2022-08-04T06:22:12.411Z,21.86
2022-08-04T06:23:12.368Z,21.82
2022-08-04T06:24:12.356Z,21.84
2022-08-04T06:25:12.352Z,21.77
2022-08-04T06:26:12.338Z,21.83
2022-08-04T06:27:12.375Z,21.80
2022-08-04T06:28:12.324Z,21.92
2022-08-04T06:29:12.319Z,21.82
2022-08-04T06:30:12.303Z,21.98
2022-08-04T06:32:27.478Z,21.92
2022-08-04T06:32:29.490Z,21.88
2022-08-04T06:33:12.282Z,21.84
2022-08-04T06:34:12.274Z,21.94
2022-08-04T06:35:12.271Z,21.92
2022-08-04T06:36:12.285Z,21.98
2022-08-04T06:37:12.276Z,21.96
2022-08-04T06:38:12.242Z,22.03
2022-08-04T06:39:12.274Z,21.96
2022-08-04T06:40:29.904Z,22.02
2022-08-04T06:41:12.217Z,22.00
2022-08-04T06:42:22.178Z,21.94
2022-08-04T06:43:12.196Z,21.90
2022-08-04T06:44:12.192Z,21.90
2022-08-04T06:45:12.178Z,21.94
2022-08-04T06:46:12.177Z,22.06
2022-08-04T06:47:13.794Z,22.03
2022-08-04T06:48:12.192Z,22.00
2022-08-04T06:49:12.144Z,21.94
2022-08-04T06:51:26.165Z,22.02
2022-08-04T06:51:28.204Z,22.06
2022-08-04T06:52:12.122Z,22.15
2022-08-04T06:53:12.121Z,22.14
2022-08-04T06:54:12.106Z,22.15
2022-08-04T06:55:12.118Z,22.22
2022-08-04T06:56:12.086Z,22.24
2022-08-04T06:57:12.079Z,22.24
2022-08-04T06:58:12.073Z,22.28
2022-08-04T06:59:12.085Z,22.36
2022-08-04T07:00:12.059Z,22.31
2022-08-04T07:01:12.046Z,22.37
2022-08-04T07:02:12.084Z,22.47
2022-08-04T07:03:12.030Z,22.42
2022-08-04T07:04:12.024Z,22.46
2022-08-04T07:05:12.012Z,22.46
2022-08-04T07:06:14.550Z,22.42
2022-08-04T07:07:11.997Z,22.58
2022-08-04T07:08:11.987Z,22.58
2022-08-04T07:09:11.981Z,22.62
2022-08-04T07:10:11.974Z,22.60
2022-08-04T07:11:12.019Z,22.65
2022-08-04T07:12:11.958Z,22.72
2022-08-04T07:13:11.951Z,22.80
2022-08-04T07:14:11.939Z,22.80
2022-08-04T07:15:14.315Z,22.80
2022-08-04T07:16:11.961Z,22.83
2022-08-04T07:17:11.912Z,22.80
2022-08-04T07:18:11.908Z,22.83
2022-08-04T07:19:13.829Z,22.88
2022-08-04T07:20:11.890Z,22.86
2022-08-04T07:21:11.890Z,22.88
2022-08-04T07:22:24.811Z,22.85
2022-08-04T07:23:11.869Z,22.88
2022-08-04T07:24:11.869Z,22.94
2022-08-04T07:25:12.974Z,22.92
2022-08-04T07:26:13.428Z,23.01
2022-08-04T07:27:11.862Z,23.10
2022-08-04T07:28:11.830Z,23.16
2022-08-04T07:29:11.858Z,23.05
2022-08-04T07:30:11.809Z,23.07
2022-08-04T07:31:33.421Z,23.17
2022-08-04T07:32:11.805Z,23.20
2022-08-04T07:33:11.791Z,23.20
2022-08-04T07:34:17.276Z,23.17
2022-08-04T07:35:20.040Z,23.22
2022-08-04T07:36:11.997Z,23.28
2022-08-04T07:37:11.763Z,23.35
2022-08-04T07:38:11.747Z,23.39
2022-08-04T07:39:11.851Z,23.36
2022-08-04T07:40:11.736Z,23.36
2022-08-04T07:42:11.715Z,23.36
2022-08-04T07:43:11.747Z,23.35
2022-08-04T07:44:11.702Z,23.28
2022-08-04T07:45:11.693Z,23.22
2022-08-04T07:46:11.683Z,23.31
2022-08-04T07:47:11.687Z,23.36
2022-08-04T07:48:11.669Z,23.47
2022-08-04T07:49:11.703Z,23.51
2022-08-04T07:50:11.696Z,23.60
2022-08-04T07:51:11.646Z,23.68
2022-08-04T07:52:11.638Z,23.61
2022-08-04T07:53:55.596Z,23.72
2022-08-04T07:54:11.625Z,23.69
2022-08-04T07:55:11.622Z,23.75
2022-08-04T07:56:11.650Z,23.70
2022-08-04T07:57:20.974Z,23.69
2022-08-04T07:58:11.591Z,23.75
2022-08-04T07:59:11.615Z,23.72
2022-08-04T08:00:11.578Z,23.75
2022-08-04T08:01:11.576Z,23.78
2022-08-04T08:02:11.576Z,23.80
2022-08-04T08:03:11.645Z,23.79
2022-08-04T08:04:11.553Z,23.80
2022-08-04T08:05:11.568Z,23.84
2022-08-04T08:06:30.331Z,23.90
2022-08-04T08:07:11.529Z,24.12
2022-08-04T08:08:11.588Z,24.00
2022-08-04T08:09:13.595Z,24.13
2022-08-04T08:10:11.512Z,24.12
2022-08-04T08:11:11.495Z,24.10
2022-08-04T08:12:37.804Z,24.13
2022-08-04T08:13:11.482Z,24.21
2022-08-04T08:14:11.502Z,24.22
2022-08-04T08:15:11.730Z,24.31
2022-08-04T08:16:11.460Z,24.31
2022-08-04T08:17:11.459Z,24.35
2022-08-04T08:18:11.498Z,24.40
2022-08-04T08:19:11.465Z,24.46
2022-08-04T08:20:11.454Z,24.57
2022-08-04T08:21:11.429Z,24.50
2022-08-04T08:22:11.416Z,24.69
2022-08-04T08:23:11.417Z,24.78
2022-08-04T08:24:11.430Z,24.78
2022-08-04T08:25:11.408Z,24.88
2022-08-04T08:26:11.422Z,24.93
2022-08-04T08:27:11.385Z,24.93
2022-08-04T08:28:11.371Z,24.93
2022-08-04T08:29:11.366Z,25.00
2022-08-04T08:30:11.355Z,24.98
2022-08-04T08:31:11.356Z,25.00
2022-08-04T08:32:11.345Z,24.99
2022-08-04T08:33:11.338Z,25.08
2022-08-04T08:34:11.328Z,25.18
2022-08-04T08:35:11.327Z,25.20
2022-08-04T08:36:11.327Z,25.15
2022-08-04T08:37:11.362Z,25.24
2022-08-04T08:38:11.306Z,25.51
2022-08-04T08:39:11.332Z,25.51
2022-08-04T08:40:11.287Z,25.47
2022-08-04T08:41:11.290Z,25.47
2022-08-04T08:42:11.274Z,25.47
2022-08-04T08:44:04.774Z,25.50
2022-08-04T08:44:11.258Z,25.58
2022-08-04T08:45:11.261Z,25.54
2022-08-04T08:46:11.262Z,25.57
2022-08-04T08:47:11.244Z,25.67
2022-08-04T08:48:11.257Z,25.72
2022-08-04T08:49:11.265Z,25.73
2022-08-04T08:50:11.223Z,25.72
2022-08-04T08:51:11.233Z,25.75
2022-08-04T08:52:11.219Z,25.77
2022-08-04T08:53:11.204Z,25.79
2022-08-04T08:54:11.194Z,25.90
2022-08-04T08:55:11.275Z,25.90
2022-08-04T08:56:11.181Z,26.01
2022-08-04T08:57:11.176Z,26.02
2022-08-04T08:58:11.169Z,26.12
2022-08-04T08:59:15.242Z,26.17
2022-08-04T09:00:11.158Z,26.09
2022-08-04T09:01:11.298Z,26.17
2022-08-04T09:02:11.143Z,26.18
2022-08-04T09:03:11.144Z,26.23
2022-08-04T09:04:11.131Z,26.25
2022-08-04T09:05:11.126Z,26.28
2022-08-04T09:06:11.117Z,26.37
2022-08-04T09:07:11.143Z,26.36
2022-08-04T09:08:11.105Z,26.44
2022-08-04T09:09:11.122Z,26.51
2022-08-04T09:10:11.092Z,26.50
2022-08-04T09:11:11.090Z,26.52
2022-08-04T09:12:11.108Z,26.51
2022-08-04T09:13:11.087Z,26.54
2022-08-04T09:14:11.075Z,26.60
2022-08-04T09:15:11.084Z,26.60
2022-08-04T09:16:11.064Z,26.65
2022-08-04T09:17:11.054Z,26.66
2022-08-04T09:18:11.070Z,26.81
2022-08-04T09:19:22.696Z,27.12
2022-08-04T09:20:11.055Z,27.34
2022-08-04T09:21:11.035Z,27.40
2022-08-04T09:22:12.764Z,27.46
2022-08-04T09:23:11.050Z,27.54
2022-08-04T09:24:36.480Z,27.50
2022-08-04T09:25:11.049Z,27.62
2022-08-04T09:26:11.002Z,27.79
2022-08-04T09:27:10.998Z,27.79
2022-08-04T09:28:10.991Z,27.85
2022-08-04T09:29:11.005Z,27.94
2022-08-04T09:30:11.016Z,27.87
2022-08-04T09:31:10.979Z,28.12
2022-08-04T09:32:10.985Z,28.37
2022-08-04T09:33:11.000Z,28.56
2022-08-04T09:34:10.962Z,28.71
2022-08-04T09:35:15.334Z,28.90
2022-08-04T09:36:10.995Z,28.89
2022-08-04T09:37:10.957Z,28.90
2022-08-04T09:38:10.948Z,28.86
2022-08-04T09:39:10.989Z,28.81
2022-08-04T09:40:14.482Z,29.00
2022-08-04T09:41:20.558Z,29.14
2022-08-04T09:42:10.965Z,29.23
2022-08-04T09:43:10.938Z,29.46
2022-08-04T09:44:50.860Z,29.34
2022-08-04T09:45:13.402Z,29.21
2022-08-04T09:46:10.928Z,29.27
2022-08-04T09:47:10.990Z,29.23
2022-08-04T09:48:10.929Z,29.36
2022-08-04T09:49:10.936Z,29.30
2022-08-04T09:50:10.931Z,29.36
2022-08-04T09:51:10.929Z,29.55
2022-08-04T09:52:10.935Z,29.68
2022-08-04T09:53:10.990Z,29.87
2022-08-04T09:54:10.933Z,30.11
2022-08-04T09:55:10.932Z,30.26
2022-08-04T09:56:10.953Z,30.29
2022-08-04T09:57:10.931Z,30.29
2022-08-04T09:58:10.961Z,30.47
2022-08-04T09:59:11.032Z,30.55
2022-08-04T10:00:10.967Z,30.61
2022-08-04T10:01:10.938Z,30.77
2022-08-04T10:02:10.937Z,30.73
2022-08-04T10:03:13.642Z,30.83
2022-08-04T10:04:10.964Z,30.75
2022-08-04T10:05:10.944Z,30.69
2022-08-04T10:06:10.942Z,30.83
2022-08-04T10:07:10.968Z,30.73
2022-08-04T10:08:10.995Z,30.72
2022-08-04T10:09:11.000Z,30.82
2022-08-04T10:10:10.949Z,30.94
2022-08-04T10:11:10.967Z,30.92
2022-08-04T10:12:10.950Z,30.88
2022-08-04T10:13:10.956Z,30.92
2022-08-04T10:14:10.953Z,30.95
2022-08-04T10:15:11.015Z,31.13
2022-08-04T10:16:10.969Z,31.29
2022-08-04T10:17:10.976Z,31.36
2022-08-04T10:18:10.964Z,31.16
2022-08-04T10:19:10.980Z,31.19
2022-08-04T10:20:10.968Z,31.25
2022-08-04T10:21:15.505Z,31.38
2022-08-04T10:22:29.962Z,31.31
2022-08-04T10:23:12.281Z,31.29
2022-08-04T10:24:10.978Z,31.41
2022-08-04T10:26:02.723Z,31.46
2022-08-04T10:26:10.983Z,31.53
2022-08-04T10:27:10.985Z,31.58
2022-08-04T10:28:11.036Z,31.76
2022-08-04T10:29:10.999Z,31.92
2022-08-04T10:30:11.003Z,31.95
2022-08-04T10:31:11.037Z,31.75
2022-08-04T10:32:11.022Z,31.93
2022-08-04T10:33:11.008Z,32.01
2022-08-04T10:34:11.007Z,32.03
2022-08-04T10:35:11.011Z,32.03
2022-08-04T10:36:11.013Z,32.00
2022-08-04T10:37:11.053Z,31.76
2022-08-04T10:38:11.068Z,31.63
2022-08-04T10:39:13.731Z,31.58
2022-08-04T10:40:11.145Z,31.38
2022-08-04T10:41:11.033Z,31.19
2022-08-04T10:42:11.030Z,31.02
2022-08-04T10:43:21.904Z,30.99
2022-08-04T10:44:11.080Z,30.99
2022-08-04T10:45:11.041Z,30.97
2022-08-04T10:46:11.052Z,31.12
2022-08-04T10:47:11.046Z,31.07
2022-08-04T10:48:11.048Z,31.10
2022-08-04T10:49:11.085Z,31.09
2022-08-04T10:50:11.049Z,31.12
2022-08-04T10:51:11.060Z,31.09
2022-08-04T10:52:11.057Z,31.06
2022-08-04T10:53:11.076Z,31.01
2022-08-04T10:54:11.060Z,31.09
2022-08-04T10:55:11.083Z,31.13
2022-08-04T10:56:11.085Z,31.12
2022-08-04T10:57:11.073Z,31.20
2022-08-04T10:58:11.058Z,31.13
2022-08-04T10:59:11.084Z,30.92
2022-08-04T11:00:11.063Z,31.04
2022-08-04T11:01:11.092Z,31.12
2022-08-04T11:02:14.947Z,31.31
2022-08-04T11:03:11.108Z,31.32
2022-08-04T11:04:11.100Z,31.62
2022-08-04T11:05:11.060Z,31.73
2022-08-04T11:06:11.058Z,31.65
2022-08-04T11:07:11.054Z,31.76
2022-08-04T11:08:13.561Z,31.65
2022-08-04T11:09:13.945Z,31.72
2022-08-04T11:10:11.058Z,31.73
2022-08-04T11:11:11.054Z,31.58
2022-08-04T11:12:11.062Z,31.58
2022-08-04T11:13:29.397Z,31.62
2022-08-04T11:14:11.058Z,31.76
2022-08-04T11:15:11.049Z,31.81
2022-08-04T11:16:11.076Z,31.75
2022-08-04T11:17:11.065Z,31.68
2022-08-04T11:18:16.962Z,31.70
2022-08-04T11:19:11.042Z,31.75
2022-08-04T11:20:32.221Z,31.75
2022-08-04T11:21:11.053Z,32.06
2022-08-04T11:22:11.043Z,32.03
2022-08-04T11:23:11.058Z,32.03
2022-08-04T11:24:11.051Z,32.06
2022-08-04T11:25:11.060Z,32.06
2022-08-04T11:26:11.059Z,32.19
2022-08-04T11:27:11.028Z,32.18
2022-08-04T11:28:11.035Z,32.21
2022-08-04T11:29:11.025Z,32.15
2022-08-04T11:30:13.305Z,32.15
2022-08-04T11:31:11.021Z,32.07
2022-08-04T11:32:11.026Z,32.07
2022-08-04T11:33:11.073Z,31.89
2022-08-04T11:34:11.018Z,31.84
2022-08-04T11:35:11.020Z,31.78
2022-08-04T11:36:11.014Z,31.72
2022-08-04T11:37:14.141Z,31.66
2022-08-04T11:38:11.009Z,31.58
2022-08-04T11:39:11.076Z,31.62
2022-08-04T11:40:11.099Z,31.96
2022-08-04T11:41:11.042Z,32.18
2022-08-04T11:42:11.010Z,32.30
2022-08-04T11:43:11.001Z,32.28
2022-08-04T11:44:12.713Z,32.21
2022-08-04T11:45:11.019Z,32.19
2022-08-04T11:46:11.008Z,32.32
2022-08-04T11:47:11.000Z,32.29
2022-08-04T11:48:10.992Z,32.60
2022-08-04T11:49:10.989Z,32.93
2022-08-04T11:50:11.006Z,33.19
2022-08-04T11:51:10.998Z,33.42
2022-08-04T11:52:10.987Z,33.82
2022-08-04T11:53:10.993Z,33.91
2022-08-04T11:54:10.983Z,33.94
2022-08-04T11:55:11.031Z,33.86
2022-08-04T11:56:11.487Z,33.81
2022-08-04T11:57:10.984Z,33.57
2022-08-04T11:58:10.986Z,33.51
2022-08-04T11:59:10.984Z,33.45
2022-08-04T12:00:11.237Z,33.44
2022-08-04T12:01:11.011Z,33.37
2022-08-04T12:02:11.061Z,32.97
2022-08-04T12:03:10.991Z,32.67
2022-08-04T12:04:11.023Z,32.57
2022-08-04T12:05:32.386Z,32.70
2022-08-04T12:06:11.037Z,32.85
2022-08-04T12:07:35.396Z,32.94
2022-08-04T12:08:11.015Z,33.04
2022-08-04T12:09:10.991Z,32.94
2022-08-04T12:10:10.987Z,32.89
2022-08-04T12:11:11.019Z,32.82
2022-08-04T12:12:10.989Z,32.84
2022-08-04T12:13:10.989Z,32.75
2022-08-04T12:14:10.985Z,32.70
2022-08-04T12:15:10.984Z,32.60
2022-08-04T12:16:11.032Z,32.65
2022-08-04T12:17:11.009Z,32.70
2022-08-04T12:18:10.982Z,32.89
2022-08-04T12:19:10.983Z,33.04
2022-08-04T12:20:35.697Z,33.09
2022-08-04T12:21:10.978Z,33.19
2022-08-04T12:22:11.041Z,33.26
2022-08-04T12:23:10.980Z,33.31
2022-08-04T12:24:10.973Z,33.26
2022-08-04T12:25:10.994Z,33.19
2022-08-04T12:26:10.970Z,33.06
2022-08-04T12:27:10.973Z,33.09
2022-08-04T12:28:10.996Z,33.16
2022-08-04T12:29:11.643Z,33.06
2022-08-04T12:31:00.157Z,33.06
2022-08-04T12:31:11.820Z,33.07
2022-08-04T12:32:10.962Z,33.06
2022-08-04T12:33:10.983Z,33.03
2022-08-04T12:34:11.011Z,33.04
2022-08-04T12:35:10.969Z,33.12
2022-08-04T12:36:11.858Z,33.09
2022-08-04T12:37:10.949Z,33.21
2022-08-04T12:38:10.949Z,33.19
2022-08-04T12:39:11.008Z,33.03
2022-08-04T12:40:29.188Z,33.03
2022-08-04T12:41:10.941Z,33.09
2022-08-04T12:42:10.942Z,33.06
2022-08-04T12:43:10.970Z,33.04
2022-08-04T12:44:33.417Z,33.19
2022-08-04T12:45:10.941Z,33.26
2022-08-04T12:46:10.975Z,33.32
2022-08-04T12:47:26.544Z,33.18
2022-08-04T12:48:10.933Z,33.06
2022-08-04T12:49:10.954Z,33.12
2022-08-04T12:50:10.950Z,33.06
2022-08-04T12:52:06.469Z,32.88
2022-08-04T12:52:10.942Z,32.84
2022-08-04T12:53:10.940Z,32.81